WSSL/XSP METAR and TAF weather

Enter ICAO airport designator
Station Type Date Time Source
WSSL METAR 2021/01/22 06:00 UTC NOAA

WSSL 220600Z 03009KT 9999 FEW018 FEW020TCU BKN150 29/23 Q1009


Station Type Date Time Source
WSSL Decoded METAR 2021/01/22 06:00 UTC NOAA

Station name not available
Jan 22, 2021 - 01:00 AM EST / 2021.01.22 0600 UTC
Wind: from the NNE (030 degrees) at 10 MPH (9 KT):0
Visibility: greater than 7 mile(s):0
Sky conditions: mostly cloudy
Weather: Towering cumulus clouds observed
Temperature: 84 F (29 C)
Dew Point: 73 F (23 C)
Relative Humidity: 70%
Pressure (altimeter): 29.80 in. Hg (1009 hPa)
ob: WSSL 220600Z 03009KT 9999 FEW018 FEW020TCU BKN150 29/23 Q1009
cycle: 6

Station Type Date Time Source
WSSL TAF 2021/01/22 06:09 UTC NOAA

TAF WSSL 220500Z 2206/2312 01008KT 9999 SCT015
TEMPO 2207/2210 3000 TSRA FEW012CB BKN015

Example: see airport list